createdAt,value
2023-04-09T00:01:14.605Z,8.50
2023-04-09T00:03:41.628Z,8.50
2023-04-09T00:06:08.723Z,8.40
2023-04-09T00:08:35.645Z,8.40
2023-04-09T00:11:02.513Z,8.40
2023-04-09T00:13:38.415Z,8.40
2023-04-09T00:16:05.894Z,8.40
2023-04-09T00:18:32.842Z,8.40
2023-04-09T00:20:59.720Z,8.40
2023-04-09T00:23:26.728Z,8.40
2023-04-09T00:25:53.689Z,8.50
2023-04-09T00:28:20.813Z,8.50
2023-04-09T00:30:47.663Z,8.50
2023-04-09T00:33:14.595Z,8.50
2023-04-09T00:35:41.579Z,8.50
2023-04-09T00:38:08.526Z,8.50
2023-04-09T00:40:35.603Z,8.50
2023-04-09T00:43:02.602Z,8.50
2023-04-09T00:45:29.627Z,8.50
2023-04-09T00:47:56.933Z,8.60
2023-04-09T00:50:23.912Z,8.60
2023-04-09T00:52:51.472Z,8.50
2023-04-09T00:55:18.753Z,8.60
2023-04-09T00:57:45.824Z,8.50
2023-04-09T01:00:13.408Z,8.50
2023-04-09T01:02:41.038Z,8.40
2023-04-09T01:05:08.567Z,8.40
2023-04-09T01:07:47.486Z,8.40
2023-04-09T01:10:23.254Z,8.30
2023-04-09T01:13:02.098Z,8.30
2023-04-09T01:15:31.478Z,8.30
2023-04-09T01:18:14.906Z,8.30
2023-04-09T01:20:49.846Z,8.30
2023-04-09T01:23:20.131Z,8.40
2023-04-09T01:25:47.014Z,8.30
2023-04-09T01:28:26.328Z,8.30
2023-04-09T01:30:56.719Z,8.30
2023-04-09T01:33:24.662Z,8.40
2023-04-09T01:35:52.747Z,8.40
2023-04-09T01:38:20.959Z,8.40
2023-04-09T01:40:49.063Z,8.40
2023-04-09T01:43:16.205Z,8.40
2023-04-09T01:45:43.995Z,8.40
2023-04-09T01:48:11.684Z,8.40
2023-04-09T01:50:38.769Z,8.50
2023-04-09T01:53:05.936Z,8.50
2023-04-09T01:55:32.811Z,8.50
2023-04-09T01:57:59.778Z,8.50
2023-04-09T02:00:31.176Z,8.50
2023-04-09T02:03:01.165Z,8.50
2023-04-09T02:05:29.868Z,8.50
2023-04-09T02:07:57.473Z,8.50
2023-04-09T02:10:26.104Z,8.50
2023-04-09T02:12:53.674Z,8.50
2023-04-09T02:15:21.809Z,8.50
2023-04-09T02:17:49.120Z,8.40
2023-04-09T02:20:19.391Z,8.40
2023-04-09T02:22:46.932Z,8.40
2023-04-09T02:25:13.934Z,8.40
2023-04-09T02:27:40.817Z,8.40
2023-04-09T02:30:08.330Z,8.40
2023-04-09T02:32:35.219Z,8.40
2023-04-09T02:35:02.138Z,8.40
2023-04-09T02:37:29.154Z,8.40
2023-04-09T02:39:56.060Z,8.40
2023-04-09T02:42:23.075Z,8.40
2023-04-09T02:44:49.889Z,8.40
2023-04-09T02:47:16.840Z,8.40
2023-04-09T02:49:43.895Z,8.40
2023-04-09T02:52:11.552Z,8.40
2023-04-09T02:54:38.444Z,8.40
2023-04-09T02:57:05.722Z,8.40
2023-04-09T02:59:34.643Z,8.30
2023-04-09T03:02:01.637Z,8.30
2023-04-09T03:04:28.707Z,8.30
2023-04-09T03:06:55.677Z,8.30
2023-04-09T03:09:22.607Z,8.30
2023-04-09T03:11:49.548Z,8.30
2023-04-09T03:14:16.551Z,8.30
2023-04-09T03:16:43.421Z,8.30
2023-04-09T03:19:10.343Z,8.30
2023-04-09T03:21:37.222Z,8.30
2023-04-09T03:24:04.447Z,8.30
2023-04-09T03:26:36.372Z,8.20
2023-04-09T03:29:03.707Z,8.20
2023-04-09T03:31:31.000Z,8.20
2023-04-09T03:33:58.875Z,8.20
2023-04-09T03:36:28.082Z,8.20
2023-04-09T03:38:55.082Z,8.20
2023-04-09T03:41:22.102Z,8.10
2023-04-09T03:43:49.012Z,8.10
2023-04-09T03:46:16.719Z,8.10
2023-04-09T03:48:44.822Z,8.10
2023-04-09T03:51:15.039Z,8.10
2023-04-09T03:53:42.262Z,8.10
2023-04-09T03:56:09.519Z,8.10
2023-04-09T03:58:36.816Z,8.10
2023-04-09T04:01:04.038Z,8.10
2023-04-09T04:03:31.062Z,8.10
2023-04-09T04:06:02.840Z,8.10
2023-04-09T04:08:29.819Z,8.00
2023-04-09T04:10:56.865Z,8.00
2023-04-09T04:13:23.807Z,8.00
2023-04-09T04:15:50.911Z,8.00
2023-04-09T04:18:17.885Z,8.00
2023-04-09T04:20:44.764Z,8.00
2023-04-09T04:23:11.722Z,8.00
2023-04-09T04:25:41.531Z,8.00
2023-04-09T04:28:08.652Z,8.10
2023-04-09T04:30:35.750Z,8.10
2023-04-09T04:33:02.626Z,8.10
2023-04-09T04:35:29.611Z,8.10
2023-04-09T04:37:56.510Z,8.10
2023-04-09T04:40:23.496Z,8.10
2023-04-09T04:42:50.385Z,8.10
2023-04-09T04:45:17.392Z,8.10
2023-04-09T04:47:44.514Z,8.10
2023-04-09T04:50:11.459Z,8.10
2023-04-09T04:52:40.466Z,8.10
2023-04-09T04:55:07.546Z,8.20
2023-04-09T04:57:34.412Z,8.20
2023-04-09T05:00:01.360Z,8.20
2023-04-09T05:02:28.332Z,8.20
2023-04-09T05:04:55.537Z,8.20
2023-04-09T05:07:22.421Z,8.20
2023-04-09T05:09:49.542Z,8.20
2023-04-09T05:12:18.144Z,8.20
2023-04-09T05:14:45.090Z,8.20
2023-04-09T05:17:12.058Z,8.10
2023-04-09T05:19:38.926Z,8.10
2023-04-09T05:22:05.865Z,8.10
2023-04-09T05:24:32.732Z,8.10
2023-04-09T05:26:59.717Z,8.10
2023-04-09T05:29:26.619Z,8.10
2023-04-09T05:31:53.584Z,8.10
2023-04-09T05:34:20.687Z,8.10
2023-04-09T05:36:47.676Z,8.10
2023-04-09T05:39:14.659Z,8.10
2023-04-09T05:41:42.250Z,8.10
2023-04-09T05:44:09.145Z,8.10
2023-04-09T05:46:36.074Z,8.10
2023-04-09T05:49:03.305Z,8.10
2023-04-09T05:51:30.173Z,8.10
2023-04-09T05:53:57.154Z,8.10
2023-04-09T05:56:24.206Z,8.20
2023-04-09T05:58:51.543Z,8.20
2023-04-09T06:01:18.439Z,8.30
2023-04-09T06:03:45.656Z,8.30
2023-04-09T06:06:13.418Z,8.30
2023-04-09T06:08:40.407Z,8.30
2023-04-09T06:11:10.670Z,8.30
2023-04-09T06:13:37.848Z,8.30
2023-04-09T06:16:08.824Z,8.30
2023-04-09T06:18:37.010Z,8.30
2023-04-09T06:21:04.951Z,8.30
2023-04-09T06:23:32.873Z,8.30
2023-04-09T06:25:59.985Z,8.30
2023-04-09T06:28:27.536Z,8.30
2023-04-09T06:30:55.536Z,8.30
2023-04-09T06:33:22.643Z,8.30
2023-04-09T06:35:49.768Z,8.30
2023-04-09T06:38:17.201Z,8.30
2023-04-09T06:40:44.599Z,8.30
2023-04-09T06:43:11.557Z,8.30
2023-04-09T06:45:40.895Z,8.30
2023-04-09T06:48:08.181Z,8.30
2023-04-09T06:50:36.230Z,8.30
2023-04-09T06:53:03.211Z,8.30
2023-04-09T06:55:30.412Z,8.40
2023-04-09T06:57:57.366Z,8.40
2023-04-09T07:00:24.283Z,8.40
2023-04-09T07:02:51.536Z,8.40
2023-04-09T07:05:19.900Z,8.40
2023-04-09T07:07:46.841Z,8.40
2023-04-09T07:10:13.747Z,8.40
2023-04-09T07:12:40.844Z,8.50
2023-04-09T07:15:08.068Z,8.50
2023-04-09T07:17:35.256Z,8.50
2023-04-09T07:20:02.652Z,8.50
2023-04-09T07:22:29.971Z,8.60
2023-04-09T07:24:59.916Z,8.60
2023-04-09T07:27:28.119Z,8.60
2023-04-09T07:29:55.910Z,8.70
2023-04-09T07:32:23.260Z,8.70
2023-04-09T07:34:53.382Z,8.70
2023-04-09T07:37:20.914Z,8.70
2023-04-09T07:39:48.306Z,8.70
2023-04-09T07:42:15.205Z,8.70
2023-04-09T07:44:42.149Z,8.70
2023-04-09T07:47:09.184Z,8.80
2023-04-09T07:49:36.996Z,8.80
2023-04-09T07:52:04.359Z,8.80
2023-04-09T07:54:34.179Z,8.80
2023-04-09T07:57:04.216Z,8.80
2023-04-09T07:59:31.868Z,8.80
2023-04-09T08:01:59.298Z,8.80
2023-04-09T08:04:27.433Z,8.80
2023-04-09T08:06:54.409Z,8.80
2023-04-09T08:09:21.419Z,8.80
2023-04-09T08:11:49.019Z,8.80
2023-04-09T08:14:16.597Z,8.80
2023-04-09T08:16:44.327Z,8.80
2023-04-09T08:19:11.571Z,8.80
2023-04-09T08:21:39.293Z,8.80
2023-04-09T08:24:07.348Z,8.80
2023-04-09T08:26:34.259Z,8.80
2023-04-09T08:29:01.150Z,8.80
2023-04-09T08:31:28.166Z,8.90
2023-04-09T08:33:55.304Z,8.90
2023-04-09T08:36:22.486Z,8.90
2023-04-09T08:38:49.520Z,8.90
2023-04-09T08:41:20.104Z,8.90
2023-04-09T08:46:20.227Z,9.00
2023-04-09T08:48:51.115Z,9.00
2023-04-09T08:51:22.724Z,9.00
2023-04-09T08:53:53.502Z,9.00
2023-04-09T08:56:22.082Z,9.10
2023-04-09T08:58:49.002Z,9.10
2023-04-09T09:01:22.070Z,9.10
2023-04-09T09:03:58.366Z,9.10
2023-04-09T09:06:28.133Z,9.10
2023-04-09T09:09:07.081Z,9.20
2023-04-09T09:11:34.752Z,9.20
2023-04-09T09:14:02.660Z,9.20
2023-04-09T09:16:30.100Z,9.20
2023-04-09T09:18:57.566Z,9.20
2023-04-09T09:21:27.501Z,9.20
2023-04-09T09:23:54.724Z,9.20
2023-04-09T09:26:23.813Z,9.20
2023-04-09T09:28:51.346Z,9.20
2023-04-09T09:31:19.489Z,9.20
2023-04-09T09:33:47.310Z,9.20
2023-04-09T09:36:14.956Z,9.20
2023-04-09T09:38:52.877Z,9.20
2023-04-09T09:41:20.312Z,9.20
2023-04-09T09:43:47.373Z,9.20
2023-04-09T09:46:15.133Z,9.30
2023-04-09T09:48:42.804Z,9.30
2023-04-09T09:51:11.245Z,9.40
2023-04-09T09:53:39.000Z,9.40
2023-04-09T09:56:06.787Z,9.40
2023-04-09T09:58:38.999Z,9.50
2023-04-09T10:01:11.429Z,9.50
2023-04-09T10:03:39.877Z,9.50
2023-04-09T10:06:07.990Z,9.60
2023-04-09T10:08:36.170Z,9.60
2023-04-09T10:11:03.874Z,9.60
2023-04-09T10:13:33.916Z,9.60
2023-04-09T10:16:01.948Z,9.70
2023-04-09T10:18:34.964Z,9.70
2023-04-09T10:21:01.831Z,9.70
2023-04-09T10:23:38.036Z,9.70
2023-04-09T10:26:06.015Z,9.70
2023-04-09T10:28:32.884Z,9.70
2023-04-09T10:30:59.970Z,9.70
2023-04-09T10:33:27.999Z,9.80
2023-04-09T10:35:55.931Z,9.80
2023-04-09T10:38:36.190Z,9.80
2023-04-09T10:41:09.770Z,9.80
2023-04-09T10:43:36.970Z,9.90
2023-04-09T10:46:08.567Z,9.90
2023-04-09T10:48:35.913Z,9.90
2023-04-09T10:51:05.553Z,9.90
2023-04-09T10:53:32.593Z,9.90
2023-04-09T10:55:59.566Z,9.90
2023-04-09T10:58:26.457Z,9.90
2023-04-09T11:00:54.133Z,10.00
2023-04-09T11:03:22.553Z,10.10
2023-04-09T11:05:56.873Z,10.20
2023-04-09T11:08:24.344Z,10.40
2023-04-09T11:10:52.369Z,10.60
2023-04-09T11:13:21.097Z,10.70
2023-04-09T11:15:48.167Z,10.80
2023-04-09T11:18:22.806Z,10.90
2023-04-09T11:20:50.000Z,10.90
2023-04-09T11:23:17.876Z,10.80
2023-04-09T11:25:48.503Z,10.90
2023-04-09T11:28:15.417Z,11.10
2023-04-09T11:30:43.901Z,11.30
2023-04-09T11:33:10.846Z,11.50
2023-04-09T11:35:37.875Z,11.80
2023-04-09T11:38:08.619Z,12.20
2023-04-09T11:40:35.774Z,12.40
2023-04-09T11:43:03.378Z,12.70
2023-04-09T11:45:32.444Z,12.90
2023-04-09T11:47:59.441Z,13.00
2023-04-09T11:50:29.603Z,13.00
2023-04-09T11:52:56.947Z,12.90
2023-04-09T11:55:27.900Z,12.80
2023-04-09T11:57:57.613Z,12.60
2023-04-09T12:00:25.243Z,12.30
2023-04-09T12:02:59.041Z,12.10
2023-04-09T12:05:28.180Z,12.00
2023-04-09T12:08:13.273Z,11.80
2023-04-09T12:10:40.282Z,11.70
2023-04-09T12:13:08.118Z,11.60
2023-04-09T12:15:39.202Z,11.50
2023-04-09T12:18:09.952Z,11.40
2023-04-09T12:20:39.693Z,11.30
2023-04-09T12:23:07.860Z,11.30
2023-04-09T12:25:36.876Z,11.20
2023-04-09T12:28:04.714Z,11.20
2023-04-09T12:30:32.057Z,11.10
2023-04-09T12:32:59.174Z,11.10
2023-04-09T12:35:26.315Z,11.00
2023-04-09T12:37:53.342Z,11.00
2023-04-09T12:40:20.808Z,10.90
2023-04-09T12:42:47.856Z,10.90
2023-04-09T12:45:15.703Z,10.90
2023-04-09T12:47:43.213Z,10.90
2023-04-09T12:50:11.040Z,10.90
2023-04-09T12:52:38.157Z,10.80
2023-04-09T12:55:06.014Z,10.80
2023-04-09T12:57:32.857Z,10.80
2023-04-09T13:00:00.046Z,10.80
2023-04-09T13:02:27.140Z,10.80
2023-04-09T13:04:54.224Z,10.80
2023-04-09T13:07:21.303Z,10.70
2023-04-09T13:09:50.512Z,10.70
2023-04-09T13:12:17.705Z,10.70
2023-04-09T13:14:46.704Z,10.60
2023-04-09T13:17:14.065Z,10.60
2023-04-09T13:19:42.682Z,10.50
2023-04-09T13:22:10.603Z,10.40
2023-04-09T13:24:38.319Z,10.30
2023-04-09T13:27:06.078Z,10.30
2023-04-09T13:29:33.054Z,10.30
2023-04-09T13:32:01.875Z,10.20
2023-04-09T13:34:28.859Z,10.20
2023-04-09T13:36:56.962Z,10.20
2023-04-09T13:39:24.012Z,10.20
2023-04-09T13:41:51.065Z,10.20
2023-04-09T13:44:18.059Z,10.20
2023-04-09T13:46:45.123Z,10.20
2023-04-09T13:49:12.196Z,10.20
2023-04-09T13:51:39.126Z,10.20
2023-04-09T13:54:08.217Z,10.20
2023-04-09T13:56:35.077Z,10.20
2023-04-09T13:59:02.022Z,10.20
2023-04-09T14:01:30.321Z,10.20
2023-04-09T14:03:57.705Z,10.20
2023-04-09T14:06:24.742Z,10.20
2023-04-09T14:08:51.890Z,10.20
2023-04-09T14:11:19.084Z,10.30
2023-04-09T14:13:46.293Z,10.30
2023-04-09T14:16:13.350Z,10.30
2023-04-09T14:18:40.458Z,10.30
2023-04-09T14:21:09.865Z,10.40
2023-04-09T14:23:37.473Z,10.60
2023-04-09T14:26:05.602Z,10.70
2023-04-09T14:28:33.276Z,10.70
2023-04-09T14:31:00.607Z,10.80
2023-04-09T14:33:27.898Z,10.80
2023-04-09T14:35:55.006Z,10.90
2023-04-09T14:38:24.082Z,11.00
2023-04-09T14:40:51.498Z,11.00
2023-04-09T14:43:18.505Z,11.20
2023-04-09T14:45:45.467Z,11.30
2023-04-09T14:48:12.341Z,11.30
2023-04-09T14:50:39.413Z,11.20
2023-04-09T14:53:06.229Z,11.10
2023-04-09T14:55:33.101Z,11.10
2023-04-09T14:58:01.740Z,11.10
2023-04-09T15:00:28.766Z,11.10
2023-04-09T15:02:56.577Z,11.10
2023-04-09T15:05:23.793Z,11.00
2023-04-09T15:07:50.744Z,11.00
2023-04-09T15:10:17.810Z,11.00
2023-04-09T15:12:44.774Z,10.90
2023-04-09T15:15:13.779Z,10.90
2023-04-09T15:17:40.789Z,10.90
2023-04-09T15:20:08.050Z,10.90
2023-04-09T15:22:34.871Z,11.00
2023-04-09T15:25:01.995Z,11.00
2023-04-09T15:27:28.868Z,11.00
2023-04-09T15:29:55.853Z,10.90
2023-04-09T15:32:22.819Z,10.80
2023-04-09T15:34:50.055Z,10.70
2023-04-09T15:37:16.907Z,10.60
2023-04-09T15:39:43.965Z,10.50
2023-04-09T15:42:12.257Z,10.50
2023-04-09T15:44:41.694Z,10.40
2023-04-09T15:47:08.648Z,10.40
2023-04-09T15:49:37.128Z,10.30
2023-04-09T15:52:04.310Z,10.20
2023-04-09T15:54:31.237Z,10.10
2023-04-09T15:56:58.172Z,10.00
2023-04-09T15:59:25.148Z,10.00
2023-04-09T16:01:52.657Z,9.90
2023-04-09T16:04:19.652Z,9.80
2023-04-09T16:06:46.656Z,9.80
2023-04-09T16:09:13.549Z,9.80
2023-04-09T16:11:40.882Z,9.80
2023-04-09T16:14:09.388Z,9.70
2023-04-09T16:16:37.064Z,9.70
2023-04-09T16:19:03.956Z,9.70
2023-04-09T16:21:31.465Z,9.70
2023-04-09T16:23:58.356Z,9.70
2023-04-09T16:26:25.468Z,9.60
2023-04-09T16:28:52.643Z,9.60
2023-04-09T16:31:19.739Z,9.60
2023-04-09T16:33:46.656Z,9.50
2023-04-09T16:36:13.629Z,9.50
2023-04-09T16:38:41.775Z,9.50
2023-04-09T16:41:08.639Z,9.50
2023-04-09T16:43:36.032Z,9.50
2023-04-09T16:46:03.002Z,9.50
2023-04-09T16:48:29.954Z,9.40
2023-04-09T16:50:57.118Z,9.40
2023-04-09T16:53:23.946Z,9.40
2023-04-09T16:55:50.919Z,9.30
2023-04-09T16:58:17.798Z,9.30
2023-04-09T17:00:46.943Z,9.20
2023-04-09T17:03:14.887Z,9.20
2023-04-09T17:05:41.961Z,9.20
2023-04-09T17:08:08.780Z,9.20
2023-04-09T17:10:36.819Z,9.10
2023-04-09T17:13:03.726Z,9.00
2023-04-09T17:15:30.827Z,9.00
2023-04-09T17:17:58.572Z,8.90
2023-04-09T17:20:26.414Z,8.90
2023-04-09T17:22:53.326Z,8.90
2023-04-09T17:25:20.833Z,8.90
2023-04-09T17:27:47.800Z,8.90
2023-04-09T17:30:14.685Z,8.80
2023-04-09T17:32:43.852Z,8.80
2023-04-09T17:35:11.024Z,8.80
2023-04-09T17:37:38.748Z,8.80
2023-04-09T17:40:07.003Z,8.80
2023-04-09T17:42:33.895Z,8.90
2023-04-09T17:45:01.120Z,8.90
2023-04-09T17:47:28.044Z,8.90
2023-04-09T17:49:55.105Z,8.90
2023-04-09T17:52:22.646Z,9.00
2023-04-09T17:54:52.210Z,9.00
2023-04-09T17:57:19.149Z,9.10
2023-04-09T17:59:46.020Z,9.20
2023-04-09T18:02:13.074Z,9.20
2023-04-09T18:04:40.364Z,9.20
2023-04-09T18:07:07.378Z,9.30
2023-04-09T18:09:34.571Z,9.30
2023-04-09T18:12:02.841Z,9.40
2023-04-09T18:14:32.535Z,9.40
2023-04-09T18:16:59.757Z,9.40
2023-04-09T18:19:26.726Z,9.40
2023-04-09T18:21:53.766Z,9.40
2023-04-09T18:24:20.605Z,9.40
2023-04-09T18:26:47.610Z,9.40
2023-04-09T18:29:14.735Z,9.40
2023-04-09T18:31:41.792Z,9.40
2023-04-09T18:34:08.951Z,9.30
2023-04-09T18:36:35.853Z,9.30
2023-04-09T18:39:05.134Z,9.30
2023-04-09T18:41:32.237Z,9.30
2023-04-09T18:43:59.175Z,9.30
2023-04-09T18:46:26.780Z,9.30
2023-04-09T18:48:53.913Z,9.20
2023-04-09T18:51:21.187Z,9.20
2023-04-09T18:53:53.043Z,9.20
2023-04-09T18:56:20.479Z,9.20
2023-04-09T18:58:47.966Z,9.20
2023-04-09T19:01:14.850Z,9.20
2023-04-09T19:03:43.460Z,9.20
2023-04-09T19:06:14.808Z,9.20
2023-04-09T19:08:41.909Z,9.20
2023-04-09T19:11:08.962Z,9.20
2023-04-09T19:13:37.304Z,9.20
2023-04-09T19:16:04.664Z,9.20
2023-04-09T19:18:32.179Z,9.20
2023-04-09T19:20:59.045Z,9.10
2023-04-09T19:23:26.439Z,9.10
2023-04-09T19:25:55.320Z,9.10
2023-04-09T19:28:22.536Z,9.10
2023-04-09T19:30:52.400Z,9.10
2023-04-09T19:33:22.935Z,9.10
2023-04-09T19:35:50.409Z,9.10
2023-04-09T19:38:18.321Z,9.10
2023-04-09T19:40:46.138Z,9.10
2023-04-09T19:43:13.446Z,9.10
2023-04-09T19:45:40.498Z,9.00
2023-04-09T19:48:07.501Z,9.00
2023-04-09T19:50:38.576Z,9.00
2023-04-09T19:53:06.181Z,9.00
2023-04-09T19:55:37.479Z,9.00
2023-04-09T19:58:05.020Z,9.00
2023-04-09T20:00:32.701Z,9.00
2023-04-09T20:03:00.298Z,9.00
2023-04-09T20:05:27.420Z,9.00
2023-04-09T20:07:54.729Z,9.00
2023-04-09T20:10:21.864Z,8.90
2023-04-09T20:12:49.446Z,8.90
2023-04-09T20:15:17.741Z,8.90
2023-04-09T20:17:44.760Z,8.90
2023-04-09T20:20:12.562Z,8.90
2023-04-09T20:22:43.312Z,8.90
2023-04-09T20:25:11.745Z,9.00
2023-04-09T20:27:38.942Z,9.00
2023-04-09T20:30:08.778Z,9.00
2023-04-09T20:32:36.986Z,9.00
2023-04-09T20:35:04.898Z,8.90
2023-04-09T20:37:32.002Z,8.90
2023-04-09T20:39:59.367Z,9.00
2023-04-09T20:42:26.905Z,9.00
2023-04-09T20:44:54.229Z,9.00
2023-04-09T20:47:22.266Z,9.00
2023-04-09T20:49:51.255Z,9.00
2023-04-09T20:52:18.176Z,9.00
2023-04-09T20:54:45.555Z,9.00
2023-04-09T20:57:14.005Z,8.90
2023-04-09T20:59:42.136Z,8.90
2023-04-09T21:02:09.153Z,8.90
2023-04-09T21:04:36.219Z,8.90
2023-04-09T21:07:03.119Z,8.90
2023-04-09T21:09:31.594Z,8.90
2023-04-09T21:11:58.610Z,8.90
2023-04-09T21:14:25.629Z,8.90
2023-04-09T21:16:52.770Z,8.90
2023-04-09T21:19:19.783Z,8.90
2023-04-09T21:21:46.823Z,8.90
2023-04-09T21:24:13.973Z,8.90
2023-04-09T21:26:50.827Z,8.90
2023-04-09T21:29:19.680Z,8.90
2023-04-09T21:31:46.595Z,8.80
2023-04-09T21:34:13.500Z,8.80
2023-04-09T21:36:40.819Z,8.80
2023-04-09T21:39:07.941Z,8.80
2023-04-09T21:41:34.906Z,8.80
2023-04-09T21:44:08.159Z,8.80
2023-04-09T21:46:40.887Z,8.80
2023-04-09T21:49:08.246Z,8.70
2023-04-09T21:51:35.745Z,8.70
2023-04-09T21:54:07.030Z,8.70
2023-04-09T21:56:34.304Z,8.70
2023-04-09T21:59:01.538Z,8.80
2023-04-09T22:01:30.572Z,8.80
2023-04-09T22:03:58.309Z,8.90
2023-04-09T22:06:27.208Z,8.90
2023-04-09T22:08:56.816Z,8.90
2023-04-09T22:11:26.927Z,9.00
2023-04-09T22:13:54.132Z,9.00
2023-04-09T22:16:21.116Z,9.00
2023-04-09T22:18:48.073Z,8.90
2023-04-09T22:21:15.820Z,8.90
2023-04-09T22:23:42.934Z,8.80
2023-04-09T22:26:10.162Z,8.80
2023-04-09T22:28:37.077Z,8.80
2023-04-09T22:31:04.485Z,8.70
2023-04-09T22:33:31.866Z,8.70
2023-04-09T22:35:59.779Z,8.70
2023-04-09T22:38:26.836Z,8.80
2023-04-09T22:40:53.834Z,8.70
2023-04-09T22:43:20.727Z,8.70
2023-04-09T22:45:52.097Z,8.70
2023-04-09T22:48:19.323Z,8.70
2023-04-09T22:50:46.816Z,8.70
2023-04-09T22:53:19.020Z,8.70
2023-04-09T22:55:47.660Z,8.60
2023-04-09T22:58:15.147Z,8.70
2023-04-09T23:00:42.420Z,8.70
2023-04-09T23:03:09.712Z,8.60
2023-04-09T23:05:36.704Z,8.70
2023-04-09T23:08:03.693Z,8.70
2023-04-09T23:10:30.594Z,8.70
2023-04-09T23:12:57.527Z,8.60
2023-04-09T23:15:24.352Z,8.60
2023-04-09T23:17:52.156Z,8.60
2023-04-09T23:20:19.067Z,8.70
2023-04-09T23:22:46.203Z,8.70
2023-04-09T23:25:14.206Z,8.70
2023-04-09T23:27:41.160Z,8.70
2023-04-09T23:30:08.999Z,8.70
2023-04-09T23:32:35.942Z,8.70
2023-04-09T23:35:02.976Z,8.70
2023-04-09T23:37:29.898Z,8.70
2023-04-09T23:39:57.259Z,8.70
2023-04-09T23:42:24.217Z,8.60
2023-04-09T23:44:51.810Z,8.60
2023-04-09T23:47:18.730Z,8.50
2023-04-09T23:49:45.624Z,8.50
2023-04-09T23:52:12.473Z,8.50
2023-04-09T23:54:39.418Z,8.50
2023-04-09T23:57:07.604Z,8.60
2023-04-09T23:59:36.076Z,8.50
